Time,TemperatureF,DewpointF,PressureIn,WindDirection,WindDirectionDegrees,WindSpeedMPH,WindSpeedGustMPH,Humidity,HourlyPrecipIn,Conditions,Clouds,dailyrainin,SolarRadiationWatts/m^2,SoftwareType,DateUTC
2013-01-28 00:02:00,28.0,28.0,-100.00,East,81,4.0,9.0,98,0.00,,,0.00,1.000000,,2013-01-28 06:02:00,
2013-01-28 00:32:00,28.0,28.0,-100.00,ENE,67,3.0,5.0,99,0.00,,,0.00,1.000000,,2013-01-28 06:32:00,
2013-01-28 00:42:00,28.0,28.0,-100.00,ENE,67,3.0,5.0,99,0.00,,,0.00,1.000000,,2013-01-28 06:42:00,
2013-01-28 00:52:00,28.0,28.0,-100.00,ENE,67,3.0,5.0,99,0.00,,,0.00,1.000000,,2013-01-28 06:52:00,
2013-01-28 01:02:00,28.0,28.0,-100.00,ENE,67,3.0,5.0,99,0.00,,,0.00,1.000000,,2013-01-28 07:02:00,
2013-01-28 01:32:00,27.0,27.0,-100.00,East,83,3.0,4.0,99,0.00,,,0.00,1.000000,,2013-01-28 07:32:00,
2013-01-28 01:42:00,27.0,27.0,-100.00,East,83,3.0,4.0,99,0.00,,,0.00,1.000000,,2013-01-28 07:42:00,
2013-01-28 01:52:00,27.0,27.0,-100.00,East,83,3.0,4.0,99,0.00,,,0.00,1.000000,,2013-01-28 07:52:00,
2013-01-28 02:01:00,27.0,27.0,-100.00,East,83,3.0,4.0,99,0.00,,,0.00,1.000000,,2013-01-28 08:01:00,
2013-01-28 02:32:00,26.0,26.0,-100.00,NE,54,2.0,3.0,98,0.00,,,0.00,1.000000,,2013-01-28 08:32:00,
2013-01-28 02:42:00,26.0,26.0,-100.00,NE,54,2.0,3.0,98,0.00,,,0.00,1.000000,,2013-01-28 08:42:00,
2013-01-28 02:52:00,26.0,26.0,-100.00,NE,54,2.0,3.0,98,0.00,,,0.00,1.000000,,2013-01-28 08:52:00,
2013-01-28 03:02:00,26.0,26.0,-100.00,NE,54,2.0,3.0,98,0.00,,,0.00,1.000000,,2013-01-28 09:02:00,
2013-01-28 03:32:00,22.0,21.0,-100.00,NNW,332,2.0,3.0,96,0.00,,,0.00,1.000000,,2013-01-28 09:32:00,
2013-01-28 03:42:00,22.0,21.0,-100.00,NNW,332,2.0,3.0,96,0.00,,,0.00,1.000000,,2013-01-28 09:42:00,
2013-01-28 03:52:00,22.0,21.0,-100.00,NNW,332,2.0,3.0,96,0.00,,,0.00,1.000000,,2013-01-28 09:52:00,
2013-01-28 04:02:00,22.0,21.0,-100.00,NNW,332,2.0,3.0,96,0.00,,,0.00,1.000000,,2013-01-28 10:02:00,
2013-01-28 04:32:00,24.0,24.0,-100.00,SSW,199,2.0,3.0,98,0.00,,,0.00,1.000000,,2013-01-28 10:32:00,
2013-01-28 04:42:00,24.0,24.0,-100.00,SSW,199,2.0,3.0,98,0.00,,,0.00,1.000000,,2013-01-28 10:42:00,
2013-01-28 04:52:00,24.0,24.0,-100.00,SSW,199,2.0,3.0,98,0.00,,,0.00,1.000000,,2013-01-28 10:52:00,
2013-01-28 05:02:00,24.0,24.0,-100.00,SSW,199,2.0,3.0,98,0.00,,,0.00,1.000000,,2013-01-28 11:02:00,
2013-01-28 05:32:00,24.0,24.0,-100.00,North,352,1.0,3.0,98,0.00,,,0.00,1.000000,,2013-01-28 11:32:00,
2013-01-28 05:42:00,24.0,24.0,-100.00,North,352,1.0,3.0,98,0.00,,,0.00,1.000000,,2013-01-28 11:42:00,
2013-01-28 05:52:00,24.0,24.0,-100.00,North,352,1.0,3.0,98,0.00,,,0.00,1.000000,,2013-01-28 11:52:00,
2013-01-28 06:03:00,24.0,24.0,-100.00,North,352,1.0,3.0,98,0.00,,,0.00,1.000000,,2013-01-28 12:03:00,
2013-01-28 06:33:00,26.0,26.0,-100.00,SE,139,2.0,4.0,99,0.00,,,0.00,1.000000,,2013-01-28 12:33:00,
2013-01-28 06:42:00,26.0,26.0,-100.00,SE,139,2.0,4.0,99,0.00,,,0.00,1.000000,,2013-01-28 12:42:00,
2013-01-28 06:52:00,26.0,26.0,-100.00,SE,139,2.0,4.0,99,0.00,,,0.00,1.000000,,2013-01-28 12:52:00,
2013-01-28 07:03:00,26.0,26.0,-100.00,SE,139,2.0,4.0,99,0.00,,,0.00,1.000000,,2013-01-28 13:03:00,
2013-01-28 07:33:00,26.0,26.0,-100.00,SSW,198,1.0,5.0,99,0.00,,,0.00,1.000000,,2013-01-28 13:33:00,
2013-01-28 07:43:00,26.0,26.0,-100.00,SSW,198,1.0,5.0,99,0.00,,,0.00,1.000000,,2013-01-28 13:43:00,
2013-01-28 07:53:00,26.0,26.0,-100.00,SSW,198,1.0,5.0,99,0.00,,,0.00,1.000000,,2013-01-28 13:53:00,
2013-01-28 08:03:00,26.0,26.0,-100.00,SSW,198,1.0,5.0,99,0.00,,,0.00,1.000000,,2013-01-28 14:03:00,
2013-01-28 08:33:00,27.0,27.0,-100.00,SSW,208,1.0,4.0,100,0.00,,,0.00,4.000000,,2013-01-28 14:33:00,
2013-01-28 08:43:00,27.0,27.0,-100.00,SSW,208,1.0,4.0,100,0.00,,,0.00,4.000000,,2013-01-28 14:43:00,
2013-01-28 08:53:00,27.0,27.0,-100.00,SSW,208,1.0,4.0,100,0.00,,,0.00,4.000000,,2013-01-28 14:53:00,
2013-01-28 09:03:00,27.0,27.0,-100.00,SSW,208,1.0,4.0,100,0.00,,,0.00,4.000000,,2013-01-28 15:03:00,
2013-01-28 09:33:00,28.0,28.0,-100.00,East,92,2.0,4.0,99,0.00,,,0.00,27.000000,,2013-01-28 15:33:00,
2013-01-28 09:43:00,28.0,28.0,-100.00,East,92,2.0,4.0,99,0.00,,,0.00,27.000000,,2013-01-28 15:43:00,
2013-01-28 09:53:00,28.0,28.0,-100.00,East,92,2.0,4.0,99,0.00,,,0.00,27.000000,,2013-01-28 15:53:00,
2013-01-28 10:04:00,28.0,28.0,-100.00,East,92,2.0,4.0,99,0.00,,,0.00,27.000000,,2013-01-28 16:04:00,
2013-01-28 10:33:00,30.0,30.0,-100.00,East,101,3.0,5.0,99,0.00,,,0.00,62.000000,,2013-01-28 16:33:00,
2013-01-28 10:43:00,30.0,30.0,-100.00,East,101,3.0,5.0,99,0.00,,,0.00,62.000000,,2013-01-28 16:43:00,
2013-01-28 10:53:00,30.0,30.0,-100.00,East,101,3.0,5.0,99,0.00,,,0.00,62.000000,,2013-01-28 16:53:00,
2013-01-28 11:02:00,30.0,30.0,-100.00,East,101,3.0,5.0,99,0.00,,,0.00,62.000000,,2013-01-28 17:02:00,
2013-01-28 11:33:00,30.0,29.0,-100.00,SE,124,5.0,6.0,97,0.00,,,0.00,90.000000,,2013-01-28 17:33:00,
2013-01-28 11:42:00,30.0,29.0,-100.00,SE,124,5.0,6.0,97,0.00,,,0.00,90.000000,,2013-01-28 17:42:00,
2013-01-28 11:53:00,30.0,29.0,-100.00,SE,124,5.0,6.0,97,0.00,,,0.00,90.000000,,2013-01-28 17:53:00,
2013-01-28 12:03:00,30.0,29.0,-100.00,SE,124,5.0,6.0,97,0.00,,,0.00,90.000000,,2013-01-28 18:03:00,
2013-01-28 12:33:00,31.0,30.0,-100.00,ESE,102,5.0,7.0,96,0.00,,,0.00,110.000000,,2013-01-28 18:33:00,
2013-01-28 12:42:00,31.0,30.0,-100.00,ESE,102,5.0,7.0,96,0.00,,,0.00,110.000000,,2013-01-28 18:42:00,
2013-01-28 12:52:00,31.0,30.0,-100.00,ESE,102,5.0,7.0,96,0.00,,,0.00,110.000000,,2013-01-28 18:52:00,
2013-01-28 13:02:00,31.0,30.0,-100.00,ESE,102,5.0,7.0,96,0.00,,,0.00,110.000000,,2013-01-28 19:02:00,
2013-01-28 13:33:00,32.0,31.0,-100.00,SE,145,4.0,8.0,97,0.05,,,0.05,138.000000,,2013-01-28 19:33:00,
2013-01-28 13:43:00,32.0,31.0,-100.00,SE,145,4.0,8.0,97,0.05,,,0.05,138.000000,,2013-01-28 19:43:00,
2013-01-28 13:52:00,32.0,31.0,-100.00,SE,145,4.0,8.0,97,0.05,,,0.05,138.000000,,2013-01-28 19:52:00,
2013-01-28 14:02:00,32.0,31.0,-100.00,SE,145,4.0,8.0,97,0.05,,,0.05,138.000000,,2013-01-28 20:02:00,
2013-01-28 14:33:00,32.0,31.0,-100.00,SE,134,4.0,8.0,97,0.03,,,0.08,109.000000,,2013-01-28 20:33:00,
2013-01-28 14:43:00,32.0,31.0,-100.00,SE,134,4.0,8.0,97,0.03,,,0.08,109.000000,,2013-01-28 20:43:00,
2013-01-28 14:53:00,32.0,31.0,-100.00,SE,134,4.0,8.0,97,0.03,,,0.08,109.000000,,2013-01-28 20:53:00,
2013-01-28 15:03:00,32.0,31.0,-100.00,SE,134,4.0,8.0,97,0.03,,,0.08,109.000000,,2013-01-28 21:03:00,
2013-01-28 15:33:00,32.0,31.0,-100.00,ESE,105,4.0,7.0,97,0.02,,,0.10,106.000000,,2013-01-28 21:33:00,
2013-01-28 15:43:00,32.0,31.0,-100.00,ESE,105,4.0,7.0,97,0.02,,,0.10,106.000000,,2013-01-28 21:43:00,
2013-01-28 15:53:00,32.0,31.0,-100.00,ESE,105,4.0,7.0,97,0.02,,,0.10,106.000000,,2013-01-28 21:53:00,
2013-01-28 16:02:00,32.0,31.0,-100.00,ESE,105,4.0,7.0,97,0.02,,,0.10,106.000000,,2013-01-28 22:02:00,
2013-01-28 16:33:00,32.0,32.0,-100.00,ESE,109,5.0,7.0,98,0.01,,,-99.99,63.000000,,2013-01-28 22:33:00,
2013-01-28 16:42:00,32.0,32.0,-100.00,ESE,109,5.0,7.0,98,0.01,,,-99.99,63.000000,,2013-01-28 22:42:00,
2013-01-28 16:52:00,32.0,32.0,-100.00,ESE,109,5.0,7.0,98,0.01,,,-99.99,63.000000,,2013-01-28 22:52:00,
2013-01-28 17:02:00,32.0,32.0,-100.00,ESE,109,5.0,7.0,98,0.01,,,-99.99,63.000000,,2013-01-28 23:02:00,
2013-01-28 17:33:00,31.0,31.0,-100.00,SE,145,4.0,7.0,100,0.00,,,0.11,17.000000,,2013-01-28 23:33:00,
2013-01-28 17:42:00,31.0,31.0,-100.00,SE,145,4.0,7.0,100,0.00,,,0.11,17.000000,,2013-01-28 23:42:00,
2013-01-28 17:53:00,31.0,31.0,-100.00,SE,145,4.0,7.0,100,0.00,,,0.11,17.000000,,2013-01-28 23:53:00,
2013-01-28 18:02:00,31.0,31.0,-100.00,SE,145,4.0,7.0,100,0.00,,,0.11,17.000000,,2013-01-29 00:02:00,
2013-01-28 18:33:00,31.0,31.0,-100.00,ESE,112,4.0,6.0,100,0.00,,,0.11,1.000000,,2013-01-29 00:33:00,
2013-01-28 18:42:00,31.0,31.0,-100.00,ESE,112,4.0,6.0,100,0.00,,,0.11,1.000000,,2013-01-29 00:42:00,
2013-01-28 18:52:00,31.0,31.0,-100.00,ESE,112,4.0,6.0,100,0.00,,,0.11,1.000000,,2013-01-29 00:52:00,
2013-01-28 19:02:00,31.0,31.0,-100.00,ESE,112,4.0,6.0,100,0.00,,,0.11,1.000000,,2013-01-29 01:02:00,
2013-01-28 19:32:00,31.0,31.0,-100.00,SE,134,5.0,7.0,100,0.00,,,0.11,1.000000,,2013-01-29 01:32:00,
2013-01-28 19:42:00,31.0,31.0,-100.00,SE,134,5.0,7.0,100,0.00,,,0.11,1.000000,,2013-01-29 01:42:00,
2013-01-28 19:52:00,31.0,31.0,-100.00,SE,134,5.0,7.0,100,0.00,,,0.11,1.000000,,2013-01-29 01:52:00,
2013-01-28 20:02:00,31.0,31.0,-100.00,SE,134,5.0,7.0,100,0.00,,,0.11,1.000000,,2013-01-29 02:02:00,
2013-01-28 20:33:00,31.0,31.0,-100.00,ESE,103,5.0,8.0,100,0.00,,,0.11,1.000000,,2013-01-29 02:33:00,
2013-01-28 20:42:00,31.0,31.0,-100.00,ESE,103,5.0,8.0,100,0.00,,,0.11,1.000000,,2013-01-29 02:42:00,
2013-01-28 20:53:00,31.0,31.0,-100.00,ESE,103,5.0,8.0,100,0.00,,,0.11,1.000000,,2013-01-29 02:53:00,
2013-01-28 21:03:00,31.0,31.0,-100.00,ESE,103,5.0,8.0,100,0.00,,,0.11,1.000000,,2013-01-29 03:03:00,
2013-01-28 21:32:00,31.0,31.0,-100.00,SE,139,6.0,9.0,100,0.00,,,0.11,1.000000,,2013-01-29 03:32:00,
2013-01-28 21:42:00,31.0,31.0,-100.00,SE,139,6.0,9.0,100,0.00,,,0.11,1.000000,,2013-01-29 03:42:00,
2013-01-28 21:53:00,31.0,31.0,-100.00,SE,139,6.0,9.0,100,0.00,,,0.11,1.000000,,2013-01-29 03:53:00,
2013-01-28 22:02:00,31.0,31.0,-100.00,SE,139,6.0,9.0,100,0.00,,,0.11,1.000000,,2013-01-29 04:02:00,
2013-01-28 22:32:00,31.0,31.0,-100.00,ESE,118,5.0,11.0,100,0.00,,,0.11,1.000000,,2013-01-29 04:32:00,
2013-01-28 22:42:00,31.0,31.0,-100.00,ESE,118,5.0,11.0,100,0.00,,,0.11,1.000000,,2013-01-29 04:42:00,
2013-01-28 22:52:00,31.0,31.0,-100.00,ESE,118,5.0,11.0,100,0.00,,,0.11,1.000000,,2013-01-29 04:52:00,
2013-01-28 23:03:00,31.0,31.0,-100.00,ESE,118,5.0,11.0,100,0.00,,,0.11,1.000000,,2013-01-29 05:03:00,
2013-01-28 23:32:00,30.0,30.0,-100.00,ESE,109,7.0,11.0,100,0.00,,,0.11,1.000000,,2013-01-29 05:32:00,
2013-01-28 23:43:00,30.0,30.0,-100.00,ESE,109,7.0,11.0,100,0.00,,,0.11,1.000000,,2013-01-29 05:43:00,
2013-01-28 23:52:00,30.0,30.0,-100.00,ESE,109,7.0,11.0,100,0.00,,,0.11,1.000000,,2013-01-29 05:52:00,